createdAt,value
2024-02-08T00:00:39.163Z,94.00
2024-02-08T00:03:09.029Z,90.80
2024-02-08T00:05:37.971Z,95.15
2024-02-08T00:08:06.066Z,91.59
2024-02-08T00:10:33.154Z,92.01
2024-02-08T00:12:59.898Z,92.33
2024-02-08T00:15:26.565Z,93.29
2024-02-08T00:17:53.324Z,93.73
2024-02-08T00:20:19.996Z,95.44
2024-02-08T00:22:48.065Z,94.33
2024-02-08T00:25:14.841Z,92.48
2024-02-08T00:27:41.540Z,91.34
2024-02-08T00:30:08.442Z,91.79
2024-02-08T00:32:35.100Z,94.04
2024-02-08T00:35:07.820Z,98.11
2024-02-08T00:37:36.887Z,94.18
2024-02-08T00:40:03.623Z,92.59
2024-02-08T00:42:30.281Z,95.75
2024-02-08T00:44:56.874Z,96.04
2024-02-08T00:47:25.958Z,97.42
2024-02-08T00:49:52.703Z,94.38
2024-02-08T00:52:19.846Z,92.07
2024-02-08T00:54:46.600Z,95.08
2024-02-08T00:57:13.501Z,96.77
2024-02-08T00:59:40.817Z,100.00
2024-02-08T01:02:08.207Z,94.41
2024-02-08T01:04:35.195Z,96.24
2024-02-08T01:07:02.042Z,96.12
2024-02-08T01:09:29.260Z,99.13
2024-02-08T01:11:55.974Z,100.00
2024-02-08T01:14:25.597Z,95.68
2024-02-08T01:16:53.232Z,92.41
2024-02-08T01:19:26.958Z,94.91
2024-02-08T01:21:54.126Z,99.04
2024-02-08T01:24:20.886Z,96.60
2024-02-08T01:26:48.270Z,96.90
2024-02-08T01:29:15.417Z,94.41
2024-02-08T01:31:42.454Z,96.97
2024-02-08T01:34:09.619Z,95.27
2024-02-08T01:36:41.135Z,90.87
2024-02-08T01:39:14.449Z,94.85
2024-02-08T01:41:44.389Z,96.89
2024-02-08T01:44:14.538Z,91.63
2024-02-08T01:46:41.798Z,89.85
2024-02-08T01:49:09.239Z,95.33
2024-02-08T01:51:37.468Z,92.54
2024-02-08T01:54:04.622Z,96.17
2024-02-08T01:56:31.892Z,95.22
2024-02-08T01:59:01.526Z,95.44
2024-02-08T02:01:28.416Z,93.06
2024-02-08T02:03:55.132Z,92.10
2024-02-08T02:06:21.834Z,93.49
2024-02-08T02:09:09.034Z,92.79
2024-02-08T02:11:52.816Z,94.34
2024-02-08T02:14:19.820Z,90.32
2024-02-08T02:16:47.801Z,93.96
2024-02-08T02:19:14.610Z,94.23
2024-02-08T02:21:41.288Z,98.31
2024-02-08T02:24:09.111Z,96.28
2024-02-08T02:26:36.311Z,96.20
2024-02-08T02:31:33.799Z,93.75
2024-02-08T02:34:01.019Z,93.66
2024-02-08T02:36:27.709Z,96.16
2024-02-08T02:38:54.476Z,97.92
2024-02-08T02:41:26.509Z,95.63
2024-02-08T02:43:53.528Z,95.80
2024-02-08T02:46:23.573Z,97.24
2024-02-08T02:48:51.804Z,94.93
2024-02-08T02:51:18.623Z,94.50
2024-02-08T02:53:46.548Z,97.65
2024-02-08T02:56:13.681Z,95.37
2024-02-08T02:58:41.179Z,93.22
2024-02-08T03:01:08.051Z,93.10
2024-02-08T03:03:42.215Z,93.88
2024-02-08T03:06:16.586Z,93.99
2024-02-08T03:08:47.797Z,94.65
2024-02-08T03:11:15.159Z,98.37
2024-02-08T03:13:43.125Z,94.15
2024-02-08T03:16:16.099Z,93.78
2024-02-08T03:18:47.984Z,96.55
2024-02-08T03:21:23.408Z,96.71
2024-02-08T03:23:51.193Z,94.21
2024-02-08T03:26:18.486Z,93.28
2024-02-08T03:28:47.313Z,93.97
2024-02-08T03:31:15.635Z,95.66
2024-02-08T03:33:45.178Z,93.00
2024-02-08T03:36:13.437Z,95.97
2024-02-08T03:38:40.769Z,96.54
2024-02-08T03:41:07.534Z,92.92
2024-02-08T03:43:34.465Z,96.29
2024-02-08T03:46:03.114Z,92.83
2024-02-08T03:48:30.392Z,97.16
2024-02-08T03:51:02.428Z,95.59
2024-02-08T03:53:30.734Z,94.07
2024-02-08T03:55:57.548Z,92.90
2024-02-08T03:58:25.029Z,95.71
2024-02-08T04:00:55.299Z,93.74
2024-02-08T04:03:45.868Z,96.66
2024-02-08T04:06:39.912Z,95.36
2024-02-08T04:09:10.356Z,94.19
2024-02-08T04:11:56.186Z,94.81
2024-02-08T04:14:41.635Z,95.40
2024-02-08T04:17:26.976Z,93.67
2024-02-08T04:20:12.588Z,90.67
2024-02-08T04:22:58.313Z,92.54
2024-02-08T04:26:03.627Z,87.75
2024-02-08T04:28:48.981Z,89.15
2024-02-08T04:31:34.446Z,86.74
2024-02-08T04:34:19.612Z,86.92
2024-02-08T04:37:06.726Z,89.66
2024-02-08T04:39:52.095Z,85.99
2024-02-08T04:42:37.443Z,86.04
2024-02-08T04:45:22.953Z,82.32
2024-02-08T04:48:08.411Z,82.07
2024-02-08T04:50:53.889Z,84.08
2024-02-08T04:53:37.714Z,82.30
2024-02-08T04:56:10.311Z,83.14
2024-02-08T04:58:58.875Z,85.08
2024-02-08T05:01:27.522Z,81.96
2024-02-08T05:03:54.279Z,81.04
2024-02-08T05:06:23.061Z,81.47
2024-02-08T05:08:52.192Z,82.47
2024-02-08T05:11:19.086Z,80.44
2024-02-08T05:13:52.581Z,80.49
2024-02-08T05:16:19.898Z,78.83
2024-02-08T05:18:48.362Z,78.73
2024-02-08T05:21:16.215Z,76.67
2024-02-08T05:23:43.285Z,78.29
2024-02-08T05:26:11.241Z,79.57
2024-02-08T05:28:38.530Z,79.26
2024-02-08T05:31:05.925Z,76.69
2024-02-08T05:33:34.289Z,79.74
2024-02-08T05:36:08.188Z,80.35
2024-02-08T05:38:46.764Z,78.16
2024-02-08T05:41:19.585Z,82.06
2024-02-08T05:43:46.557Z,83.17
2024-02-08T05:46:26.831Z,84.78
2024-02-08T05:48:55.545Z,87.28
2024-02-08T05:51:22.425Z,90.28
2024-02-08T05:53:49.263Z,95.14
2024-02-08T05:56:16.374Z,93.52
2024-02-08T05:58:45.707Z,99.74
2024-02-08T06:01:21.348Z,98.30
2024-02-08T06:03:49.306Z,100.00
2024-02-08T06:06:34.715Z,99.00
2024-02-08T06:09:09.913Z,99.88
2024-02-08T06:11:40.370Z,97.39
2024-02-08T06:14:27.809Z,100.00
2024-02-08T06:16:58.374Z,99.18
2024-02-08T06:19:25.140Z,98.01
2024-02-08T06:21:58.916Z,100.00
2024-02-08T06:24:25.642Z,100.00
2024-02-08T06:27:14.918Z,97.66
2024-02-08T06:29:47.995Z,97.07
2024-02-08T06:32:27.481Z,96.06
2024-02-08T06:34:57.250Z,97.34
2024-02-08T06:37:31.637Z,99.11
2024-02-08T06:39:59.462Z,99.02
2024-02-08T06:42:39.644Z,97.27
2024-02-08T06:45:25.116Z,95.44
2024-02-08T06:48:01.160Z,96.48
2024-02-08T06:50:46.997Z,93.34
2024-02-08T06:53:35.307Z,90.83
2024-02-08T06:56:22.935Z,87.70
2024-02-08T06:59:08.183Z,89.97
2024-02-08T07:01:55.398Z,88.29
2024-02-08T07:04:40.995Z,89.92
2024-02-08T07:07:26.612Z,93.89
2024-02-08T07:10:12.060Z,90.94
2024-02-08T07:12:57.553Z,88.93
2024-02-08T07:15:42.922Z,88.13
2024-02-08T07:18:28.405Z,87.19
2024-02-08T07:21:13.852Z,87.78
2024-02-08T07:23:59.157Z,89.71
2024-02-08T07:26:44.486Z,87.32
2024-02-08T07:29:29.967Z,86.43
2024-02-08T07:32:15.426Z,88.76
2024-02-08T07:35:02.724Z,90.08
2024-02-08T07:37:30.895Z,91.86
2024-02-08T07:40:03.980Z,91.05
2024-02-08T07:42:31.257Z,94.01
2024-02-08T07:44:58.965Z,89.89
2024-02-08T07:47:26.625Z,86.20
2024-02-08T07:50:13.826Z,85.96
2024-02-08T07:52:56.956Z,86.97
2024-02-08T07:55:47.924Z,88.54
2024-02-08T07:58:19.791Z,91.97
2024-02-08T08:00:46.643Z,88.84
2024-02-08T08:03:17.652Z,84.63
2024-02-08T08:05:46.152Z,84.50
2024-02-08T08:08:26.812Z,80.50
2024-02-08T08:10:58.442Z,68.91
2024-02-08T08:13:45.542Z,76.81
2024-02-08T08:16:30.848Z,76.07
2024-02-08T08:19:09.212Z,75.76
2024-02-08T08:22:02.257Z,76.97
2024-02-08T08:24:29.094Z,85.41
2024-02-08T08:27:27.376Z,75.17
2024-02-08T08:29:59.881Z,77.42
2024-02-08T08:32:32.986Z,76.03
2024-02-08T08:35:39.720Z,72.93
2024-02-08T08:38:19.000Z,75.57
2024-02-08T08:40:49.416Z,71.84
2024-02-08T08:43:24.454Z,67.57
2024-02-08T08:45:52.330Z,68.70
2024-02-08T08:48:22.578Z,61.50
2024-02-08T08:50:59.169Z,63.03
2024-02-08T08:53:29.493Z,64.63
2024-02-08T08:55:56.903Z,64.77
2024-02-08T08:58:29.196Z,65.75
2024-02-08T09:01:14.923Z,67.21
2024-02-08T09:03:42.245Z,66.84
2024-02-08T09:06:13.459Z,61.35
2024-02-08T09:08:47.343Z,57.56
2024-02-08T09:11:15.324Z,56.88
2024-02-08T09:13:44.121Z,60.47
2024-02-08T09:16:23.347Z,58.86
2024-02-08T09:19:03.419Z,56.46
2024-02-08T09:21:33.450Z,55.84
2024-02-08T09:24:07.608Z,58.96
2024-02-08T09:26:50.599Z,60.16
2024-02-08T09:29:28.635Z,56.35
2024-02-08T09:31:59.850Z,57.76
2024-02-08T09:34:41.952Z,57.06
2024-02-08T09:37:10.303Z,59.08
2024-02-08T09:39:57.003Z,57.79
2024-02-08T09:42:28.450Z,56.62
2024-02-08T09:44:57.973Z,57.35
2024-02-08T09:47:32.827Z,56.43
2024-02-08T09:50:09.006Z,56.51
2024-02-08T09:52:50.028Z,57.35
2024-02-08T09:55:21.209Z,59.51
2024-02-08T09:57:48.275Z,59.23
2024-02-08T10:00:53.207Z,56.45
2024-02-08T10:03:33.433Z,51.89
2024-02-08T10:06:13.694Z,52.97
2024-02-08T10:09:09.504Z,51.07
2024-02-08T10:11:41.965Z,51.96
2024-02-08T10:14:26.445Z,52.36
2024-02-08T10:16:59.752Z,53.96
2024-02-08T10:19:30.424Z,53.76
2024-02-08T10:22:16.545Z,53.08
2024-02-08T10:25:06.178Z,52.83
2024-02-08T10:27:37.038Z,53.09
2024-02-08T10:30:06.977Z,52.07
2024-02-08T10:32:34.042Z,54.17
2024-02-08T10:35:22.079Z,52.55
2024-02-08T10:37:50.675Z,49.52
2024-02-08T10:40:30.530Z,52.55
2024-02-08T10:43:01.339Z,51.86
2024-02-08T10:45:33.519Z,53.14
2024-02-08T10:48:01.598Z,50.86
2024-02-08T10:50:29.214Z,51.70
2024-02-08T10:54:24.804Z,54.85
2024-02-08T10:57:09.637Z,55.81
2024-02-08T10:59:51.806Z,55.71
2024-02-08T11:02:36.724Z,54.14
2024-02-08T11:05:38.794Z,52.94
2024-02-08T11:08:14.798Z,54.44
2024-02-08T11:10:46.278Z,55.36
2024-02-08T11:13:16.793Z,54.39
2024-02-08T11:15:49.222Z,53.76
2024-02-08T11:18:37.178Z,53.28
2024-02-08T11:21:14.459Z,53.69
2024-02-08T11:23:47.813Z,52.82
2024-02-08T11:26:19.698Z,51.24
2024-02-08T11:28:51.665Z,52.50
2024-02-08T11:31:19.083Z,53.01
2024-02-08T11:33:46.423Z,53.01
2024-02-08T11:36:15.176Z,53.60
2024-02-08T11:39:09.748Z,52.98
2024-02-08T11:41:44.183Z,53.70
2024-02-08T11:44:13.053Z,52.93
2024-02-08T11:46:47.740Z,53.13
2024-02-08T11:49:32.997Z,53.11
2024-02-08T11:52:08.607Z,58.97
2024-02-08T11:54:39.284Z,59.94
2024-02-08T11:57:14.387Z,59.44
2024-02-08T11:59:46.281Z,63.09
2024-02-08T12:02:17.651Z,64.57
2024-02-08T12:04:44.486Z,61.38
2024-02-08T12:07:16.033Z,61.83
2024-02-08T12:09:42.831Z,64.32
2024-02-08T12:12:10.205Z,62.00
2024-02-08T12:14:41.801Z,59.97
2024-02-08T12:17:08.461Z,60.96
2024-02-08T12:19:35.780Z,61.95
2024-02-08T12:22:06.115Z,61.42
2024-02-08T12:24:34.574Z,61.04
2024-02-08T12:27:12.758Z,58.49
2024-02-08T12:29:47.319Z,59.85
2024-02-08T12:32:17.826Z,59.69
2024-02-08T12:34:49.238Z,60.42
2024-02-08T12:37:18.452Z,56.98
2024-02-08T12:39:46.648Z,58.38
2024-02-08T12:42:15.934Z,57.24
2024-02-08T12:44:49.564Z,57.91
2024-02-08T12:47:19.788Z,59.17
2024-02-08T12:49:48.836Z,58.12
2024-02-08T12:52:18.446Z,57.40
2024-02-08T12:54:53.911Z,56.41
2024-02-08T12:57:22.568Z,57.22
2024-02-08T12:59:49.222Z,56.60
2024-02-08T13:02:18.617Z,56.63
2024-02-08T13:04:48.471Z,55.54
2024-02-08T13:07:18.999Z,54.69
2024-02-08T13:09:46.679Z,53.57
2024-02-08T13:12:22.171Z,54.79
2024-02-08T13:14:51.989Z,54.46
2024-02-08T13:17:22.566Z,54.69
2024-02-08T13:19:50.526Z,55.17
2024-02-08T13:22:25.154Z,54.56
2024-02-08T13:24:53.224Z,56.99
2024-02-08T13:27:25.981Z,56.67
2024-02-08T13:29:53.387Z,57.26
2024-02-08T13:32:20.517Z,57.45
2024-02-08T13:34:50.282Z,57.60
2024-02-08T13:37:21.489Z,57.42
2024-02-08T13:39:54.800Z,56.75
2024-02-08T13:42:26.983Z,57.83
2024-02-08T13:44:59.096Z,56.79
2024-02-08T13:47:33.257Z,58.37
2024-02-08T13:50:00.629Z,58.33
2024-02-08T13:52:30.874Z,58.03
2024-02-08T13:54:59.970Z,57.63
2024-02-08T13:57:26.815Z,58.27
2024-02-08T13:59:56.631Z,58.58
2024-02-08T14:02:24.731Z,58.72
2024-02-08T14:04:54.131Z,58.71
2024-02-08T14:07:26.485Z,58.62
2024-02-08T14:10:00.448Z,58.30
2024-02-08T14:12:27.641Z,58.93
2024-02-08T14:14:55.917Z,60.63
2024-02-08T14:17:23.172Z,59.38
2024-02-08T14:19:50.332Z,59.12
2024-02-08T14:22:21.519Z,59.86
2024-02-08T14:24:52.048Z,59.07
2024-02-08T14:27:19.220Z,59.65
2024-02-08T14:29:45.957Z,58.67
2024-02-08T14:32:21.027Z,58.33
2024-02-08T14:34:55.121Z,58.49
2024-02-08T14:37:23.180Z,57.05
2024-02-08T14:39:50.292Z,57.33
2024-02-08T14:42:26.201Z,58.11
2024-02-08T14:44:55.324Z,57.48
2024-02-08T14:47:32.566Z,57.52
2024-02-08T14:50:01.194Z,56.93
2024-02-08T14:52:30.930Z,57.12
2024-02-08T14:55:10.405Z,57.28
2024-02-08T14:57:43.842Z,56.34
2024-02-08T15:00:29.590Z,55.53
2024-02-08T15:03:09.551Z,56.27
2024-02-08T15:05:50.138Z,56.49
2024-02-08T15:08:23.489Z,55.50
2024-02-08T15:11:01.027Z,57.02
2024-02-08T15:13:27.898Z,55.42
2024-02-08T15:15:56.523Z,55.69
2024-02-08T15:18:40.238Z,55.92
2024-02-08T15:21:08.161Z,56.68
2024-02-08T15:24:05.539Z,55.22
2024-02-08T15:26:38.407Z,53.84
2024-02-08T15:29:05.740Z,54.80
2024-02-08T15:31:48.510Z,54.47
2024-02-08T15:34:16.158Z,53.05
2024-02-08T15:36:51.942Z,53.12
2024-02-08T15:39:37.498Z,53.76
2024-02-08T15:42:10.822Z,54.22
2024-02-08T15:44:53.811Z,54.25
2024-02-08T15:47:21.810Z,54.20
2024-02-08T15:49:56.314Z,55.98
2024-02-08T15:52:24.394Z,55.67
2024-02-08T15:54:57.362Z,55.03
2024-02-08T15:57:30.883Z,57.09
2024-02-08T16:00:01.095Z,56.07
2024-02-08T16:02:28.359Z,55.16
2024-02-08T16:04:55.269Z,54.83
2024-02-08T16:07:29.467Z,54.19
2024-02-08T16:09:59.992Z,54.36
2024-02-08T16:12:32.836Z,55.02
2024-02-08T16:15:06.743Z,55.04
2024-02-08T16:17:36.224Z,54.52
2024-02-08T16:20:18.665Z,53.78
2024-02-08T16:23:17.812Z,53.97
2024-02-08T16:25:49.313Z,55.11
2024-02-08T16:28:24.515Z,55.57
2024-02-08T16:30:59.296Z,55.50
2024-02-08T16:33:49.538Z,54.91
2024-02-08T16:36:31.094Z,55.71
2024-02-08T16:39:09.295Z,54.41
2024-02-08T16:41:58.088Z,55.69
2024-02-08T16:44:52.156Z,55.75
2024-02-08T16:47:29.453Z,54.06
2024-02-08T16:50:00.013Z,55.61
2024-02-08T16:52:36.212Z,55.61
2024-02-08T16:55:13.685Z,57.08
2024-02-08T16:57:40.946Z,56.73
2024-02-08T17:00:26.992Z,55.51
2024-02-08T17:03:06.329Z,55.02
2024-02-08T17:05:55.196Z,54.92
2024-02-08T17:08:22.856Z,55.01
2024-02-08T17:10:57.006Z,56.46
2024-02-08T17:13:36.203Z,55.87
2024-02-08T17:16:26.246Z,57.09
2024-02-08T17:19:11.900Z,54.68
2024-02-08T17:21:53.812Z,54.19
2024-02-08T17:24:30.929Z,56.13
2024-02-08T17:27:01.017Z,55.25
2024-02-08T17:29:36.923Z,56.82
2024-02-08T17:32:08.861Z,55.13
2024-02-08T17:34:38.763Z,56.23
2024-02-08T17:37:05.725Z,56.20
2024-02-08T17:39:41.896Z,55.82
2024-02-08T17:42:09.611Z,56.70
2024-02-08T17:44:39.116Z,55.42
2024-02-08T17:47:08.785Z,55.75
2024-02-08T17:49:35.878Z,55.81
2024-02-08T17:52:03.244Z,56.69
2024-02-08T17:54:53.485Z,55.96
2024-02-08T17:57:26.393Z,56.76
2024-02-08T18:00:00.022Z,56.77
2024-02-08T18:02:27.779Z,56.36
2024-02-08T18:04:54.802Z,57.03
2024-02-08T18:07:21.887Z,59.67
2024-02-08T18:10:18.225Z,57.71
2024-02-08T18:12:45.758Z,58.46
2024-02-08T18:15:14.312Z,57.78
2024-02-08T18:17:46.217Z,56.75
2024-02-08T18:20:16.550Z,57.76
2024-02-08T18:22:43.759Z,58.36
2024-02-08T18:25:11.516Z,60.08
2024-02-08T18:27:38.217Z,59.60
2024-02-08T18:30:10.175Z,60.86
2024-02-08T18:32:40.344Z,59.84
2024-02-08T18:35:08.969Z,62.23
2024-02-08T18:37:36.281Z,61.00
2024-02-08T18:40:09.184Z,64.00
2024-02-08T18:42:39.777Z,64.51
2024-02-08T18:45:17.913Z,63.88
2024-02-08T18:47:45.369Z,62.25
2024-02-08T18:50:14.282Z,65.02
2024-02-08T18:52:43.423Z,64.17
2024-02-08T18:55:30.184Z,63.28
2024-02-08T18:57:56.917Z,63.69
2024-02-08T19:00:26.272Z,62.68
2024-02-08T19:02:53.003Z,64.16
2024-02-08T19:05:19.838Z,63.24
2024-02-08T19:07:47.628Z,64.45
2024-02-08T19:10:14.696Z,63.89
2024-02-08T19:12:42.551Z,64.31
2024-02-08T19:15:10.826Z,62.62
2024-02-08T19:17:43.289Z,70.11
2024-02-08T19:20:19.737Z,65.24
2024-02-08T19:22:47.265Z,70.76
2024-02-08T19:25:15.475Z,69.60
2024-02-08T19:27:45.071Z,67.60
2024-02-08T19:30:14.275Z,67.42
2024-02-08T19:32:41.095Z,69.02
2024-02-08T19:35:11.517Z,67.60
2024-02-08T19:37:38.399Z,68.21
2024-02-08T19:40:09.875Z,68.71
2024-02-08T19:42:36.942Z,74.38
2024-02-08T19:45:13.133Z,70.50
2024-02-08T19:47:39.892Z,74.84
2024-02-08T19:50:10.069Z,75.94
2024-02-08T19:52:41.651Z,70.68
2024-02-08T19:55:16.585Z,70.89
2024-02-08T19:57:49.061Z,79.15
2024-02-08T20:00:19.112Z,70.49
2024-02-08T20:02:48.093Z,69.70
2024-02-08T20:05:14.907Z,69.08
2024-02-08T20:07:41.973Z,74.04
2024-02-08T20:10:15.195Z,73.44
2024-02-08T20:12:50.082Z,71.72
2024-02-08T20:15:20.916Z,73.75
2024-02-08T20:17:51.318Z,73.11
2024-02-08T20:20:23.429Z,69.22
2024-02-08T20:22:54.073Z,70.11
2024-02-08T20:25:28.551Z,71.84
2024-02-08T20:27:56.788Z,76.56
2024-02-08T20:30:26.654Z,79.86
2024-02-08T20:32:53.774Z,77.33
2024-02-08T20:35:20.928Z,73.65
2024-02-08T20:37:47.926Z,77.49
2024-02-08T20:40:14.928Z,73.02
2024-02-08T20:42:41.904Z,73.21
2024-02-08T20:45:11.872Z,76.02
2024-02-08T20:47:39.086Z,74.83
2024-02-08T20:50:06.370Z,73.91
2024-02-08T20:52:33.921Z,73.52
2024-02-08T20:55:01.747Z,72.11
2024-02-08T20:57:29.135Z,72.65
2024-02-08T20:59:56.455Z,70.52
2024-02-08T21:02:25.577Z,75.13
2024-02-08T21:04:52.681Z,76.15
2024-02-08T21:07:21.672Z,76.90
2024-02-08T21:09:52.162Z,80.76
2024-02-08T21:12:18.900Z,76.71
2024-02-08T21:14:45.621Z,81.16
2024-02-08T21:17:12.464Z,77.35
2024-02-08T21:19:44.673Z,77.54
2024-02-08T21:22:16.758Z,76.76
2024-02-08T21:24:43.640Z,77.48
2024-02-08T21:27:18.052Z,71.15
2024-02-08T21:29:46.090Z,75.57
2024-02-08T21:32:12.934Z,75.66
2024-02-08T21:34:39.750Z,70.82
2024-02-08T21:37:09.894Z,71.01
2024-02-08T21:39:41.246Z,78.38
2024-02-08T21:42:08.156Z,79.99
2024-02-08T21:44:35.650Z,78.26
2024-02-08T21:47:02.376Z,77.13
2024-02-08T21:49:29.060Z,74.55
2024-02-08T21:51:55.817Z,75.80
2024-02-08T21:54:22.831Z,81.93
2024-02-08T21:56:50.022Z,81.38
2024-02-08T21:59:19.434Z,80.78
2024-02-08T22:01:46.042Z,89.27
2024-02-08T22:04:12.793Z,86.18
2024-02-08T22:06:40.973Z,79.34
2024-02-08T22:09:11.327Z,78.94
2024-02-08T22:11:48.797Z,79.45
2024-02-08T22:14:18.625Z,83.18
2024-02-08T22:16:45.292Z,78.08
2024-02-08T22:19:15.410Z,81.66
2024-02-08T22:21:46.158Z,81.33
2024-02-08T22:24:14.378Z,80.60
2024-02-08T22:26:47.730Z,81.00
2024-02-08T22:29:14.830Z,78.73
2024-02-08T22:31:41.751Z,84.40
2024-02-08T22:34:11.340Z,83.08
2024-02-08T22:36:38.405Z,80.88
2024-02-08T22:39:17.129Z,81.35
2024-02-08T22:41:45.974Z,78.63
2024-02-08T22:44:12.865Z,80.33
2024-02-08T22:46:40.484Z,80.37
2024-02-08T22:49:07.204Z,79.23
2024-02-08T22:51:35.047Z,76.73
2024-02-08T22:54:09.102Z,82.57
2024-02-08T22:56:41.021Z,78.01
2024-02-08T22:59:10.772Z,84.73
2024-02-08T23:01:38.897Z,86.75
2024-02-08T23:04:06.804Z,83.68
2024-02-08T23:06:36.458Z,88.46
2024-02-08T23:09:07.225Z,85.60
2024-02-08T23:11:37.909Z,84.77
2024-02-08T23:14:08.121Z,83.62
2024-02-08T23:16:34.928Z,86.37
2024-02-08T23:19:02.177Z,77.85
2024-02-08T23:21:32.235Z,82.79
2024-02-08T23:24:08.581Z,86.38
2024-02-08T23:26:36.406Z,83.24
2024-02-08T23:29:03.629Z,84.61
2024-02-08T23:31:32.296Z,83.83
2024-02-08T23:34:02.898Z,87.66
2024-02-08T23:36:30.336Z,82.82
2024-02-08T23:39:00.924Z,84.84
2024-02-08T23:41:30.896Z,86.21
2024-02-08T23:44:00.762Z,81.98
2024-02-08T23:46:27.554Z,88.60
2024-02-08T23:48:56.488Z,85.49
2024-02-08T23:51:23.378Z,87.78
2024-02-08T23:53:53.322Z,84.65
2024-02-08T23:56:20.247Z,85.47
2024-02-08T23:58:48.073Z,92.81
